Brownton, Minnesota
Current Conditions -  °F | °C
As of 2:53 AM on Friday 24 Oct 2014 (Local Time) from KHCD Reporting Station
Clear Clear  
Wind Chill: 46°   Ceiling: Unl
Heat Index: 46°   Visibility: 10mi
Dew Point: 41°   Wind: 3mph
Humidity: 83%   Direction: 140°SE
Pressure: 29.93"   Gusts: NA
Location:  44.73°N, 94.35°W
Report Text: KHCD 240753Z AUTO 14003KT 10SM CLR 08/05 A2993 RMK AO2 T00780051
Loading
Personal Weather Stations






























Interactive Weather Map
Tropical Storm Tracking
New forecast layout! Learn more

10-Day Weather Forecast

Advertisements
Track Severe Weather on mobile